Time,TemperatureF,DewpointF,PressureIn,WindDirection,WindDirectionDegrees,WindSpeedMPH,WindSpeedGustMPH,Humidity,HourlyPrecipIn,Conditions,Clouds,dailyrainin,SoftwareType,DateUTC
2013-09-05 00:01:00,56.0,52.0,-100.00,East,93,1.0,4.0,86,0.00,,,0.00,,2013-09-05 07:01:00,
2013-09-05 00:12:00,56.0,52.0,-100.00,East,93,1.0,4.0,86,0.00,,,0.00,,2013-09-05 07:12:00,
2013-09-05 00:42:00,55.0,52.0,-100.00,ESE,104,1.0,3.0,89,0.00,,,0.00,,2013-09-05 07:42:00,
2013-09-05 00:52:00,55.0,52.0,-100.00,ESE,104,1.0,3.0,89,0.00,,,0.00,,2013-09-05 07:52:00,
2013-09-05 01:03:00,55.0,52.0,-100.00,ESE,104,1.0,3.0,89,0.00,,,0.00,,2013-09-05 08:03:00,
2013-09-05 01:12:00,55.0,52.0,-100.00,ESE,104,1.0,3.0,89,0.00,,,0.00,,2013-09-05 08:12:00,
2013-09-05 01:42:00,54.0,52.0,-100.00,ESE,103,0.0,0.0,92,0.00,,,0.00,,2013-09-05 08:42:00,
2013-09-05 01:52:00,54.0,52.0,-100.00,ESE,103,0.0,0.0,92,0.00,,,0.00,,2013-09-05 08:52:00,
2013-09-05 02:02:00,54.0,52.0,-100.00,ESE,103,0.0,0.0,92,0.00,,,0.00,,2013-09-05 09:02:00,
2013-09-05 02:11:00,54.0,52.0,-100.00,ESE,103,0.0,0.0,92,0.00,,,0.00,,2013-09-05 09:11:00,
2013-09-05 02:43:00,52.0,50.0,-100.00,ENE,75,1.0,3.0,93,0.00,,,0.00,,2013-09-05 09:43:00,
2013-09-05 02:54:00,52.0,50.0,-100.00,ENE,75,1.0,3.0,93,0.00,,,0.00,,2013-09-05 09:54:00,
2013-09-05 03:03:00,52.0,50.0,-100.00,ENE,75,1.0,3.0,93,0.00,,,0.00,,2013-09-05 10:03:00,
2013-09-05 03:12:00,52.0,50.0,-100.00,ENE,75,1.0,3.0,93,0.00,,,0.00,,2013-09-05 10:12:00,
2013-09-05 03:43:00,52.0,51.0,-100.00,ESE,104,2.0,2.0,95,0.00,,,0.00,,2013-09-05 10:43:00,
2013-09-05 03:53:00,52.0,51.0,-100.00,ESE,104,2.0,2.0,95,0.00,,,0.00,,2013-09-05 10:53:00,
2013-09-05 04:03:00,52.0,51.0,-100.00,ESE,104,2.0,2.0,95,0.00,,,0.00,,2013-09-05 11:03:00,
2013-09-05 04:12:00,52.0,51.0,-100.00,ESE,104,2.0,2.0,95,0.00,,,0.00,,2013-09-05 11:12:00,
2013-09-05 04:43:00,51.0,50.0,-100.00,ESE,107,0.0,2.0,95,0.00,,,0.00,,2013-09-05 11:43:00,
2013-09-05 04:52:00,51.0,50.0,-100.00,ESE,107,0.0,2.0,95,0.00,,,0.00,,2013-09-05 11:52:00,
2013-09-05 05:01:00,51.0,50.0,-100.00,ESE,107,0.0,2.0,95,0.00,,,0.00,,2013-09-05 12:01:00,
2013-09-05 05:12:00,51.0,50.0,-100.00,ESE,107,0.0,2.0,95,0.00,,,0.00,,2013-09-05 12:12:00,
2013-09-05 05:42:00,50.0,48.0,-100.00,ENE,57,0.0,3.0,94,0.00,,,0.00,,2013-09-05 12:42:00,
2013-09-05 05:52:00,50.0,48.0,-100.00,ENE,57,0.0,3.0,94,0.00,,,0.00,,2013-09-05 12:52:00,
2013-09-05 06:01:00,50.0,48.0,-100.00,ENE,57,0.0,3.0,94,0.00,,,0.00,,2013-09-05 13:01:00,
2013-09-05 06:12:00,50.0,48.0,-100.00,ENE,57,0.0,3.0,94,0.00,,,0.00,,2013-09-05 13:12:00,
2013-09-05 06:42:00,50.0,49.0,-100.00,SSE,147,1.0,3.0,95,0.00,,,0.00,,2013-09-05 13:42:00,
2013-09-05 06:53:00,50.0,49.0,-100.00,SSE,147,1.0,3.0,95,0.00,,,0.00,,2013-09-05 13:53:00,
2013-09-05 07:01:00,50.0,49.0,-100.00,SSE,147,1.0,3.0,95,0.00,,,0.00,,2013-09-05 14:01:00,
2013-09-05 07:12:00,50.0,49.0,-100.00,SSE,147,1.0,3.0,95,0.00,,,0.00,,2013-09-05 14:12:00,
2013-09-05 07:42:00,56.0,55.0,-100.00,East,82,0.0,1.0,95,0.00,,,0.00,,2013-09-05 14:42:00,
2013-09-05 07:52:00,56.0,55.0,-100.00,East,82,0.0,1.0,95,0.00,,,0.00,,2013-09-05 14:52:00,
2013-09-05 08:02:00,56.0,55.0,-100.00,East,82,0.0,1.0,95,0.00,,,0.00,,2013-09-05 15:02:00,
2013-09-05 08:11:00,56.0,55.0,-100.00,East,82,0.0,1.0,95,0.00,,,0.00,,2013-09-05 15:11:00,
2013-09-05 08:44:00,67.0,61.0,-100.00,SE,130,4.0,7.0,80,0.00,,,-99.99,,2013-09-05 15:44:00,
2013-09-05 08:54:00,67.0,61.0,-100.00,SE,130,4.0,7.0,80,0.00,,,-99.99,,2013-09-05 15:54:00,
2013-09-05 09:03:00,67.0,61.0,-100.00,SE,130,4.0,7.0,80,0.00,,,-99.99,,2013-09-05 16:03:00,
2013-09-05 09:13:00,67.0,61.0,-100.00,SE,130,4.0,7.0,80,0.00,,,-99.99,,2013-09-05 16:13:00,
2013-09-05 09:54:00,75.0,50.0,-100.00,SE,136,6.0,11.0,42,0.00,,,0.00,,2013-09-05 16:54:00,
2013-09-05 10:03:00,75.0,50.0,-100.00,SE,136,6.0,11.0,42,0.00,,,0.00,,2013-09-05 17:03:00,
2013-09-05 10:12:00,75.0,50.0,-100.00,SE,136,6.0,11.0,42,0.00,,,0.00,,2013-09-05 17:12:00,
2013-09-05 10:43:00,78.0,49.0,-100.00,SE,127,7.0,11.0,36,0.00,,,0.00,,2013-09-05 17:43:00,
2013-09-05 10:52:00,78.0,49.0,-100.00,SE,127,7.0,11.0,36,0.00,,,0.00,,2013-09-05 17:52:00,
2013-09-05 11:02:00,78.0,49.0,-100.00,SE,127,7.0,11.0,36,0.00,,,0.00,,2013-09-05 18:02:00,
2013-09-05 11:12:00,78.0,49.0,-100.00,SE,127,7.0,11.0,36,0.00,,,0.00,,2013-09-05 18:12:00,
2013-09-05 11:43:00,78.0,49.0,-100.00,North,6,5.0,15.0,36,0.00,,,0.00,,2013-09-05 18:43:00,
2013-09-05 11:52:00,78.0,49.0,-100.00,North,6,5.0,15.0,36,0.00,,,0.00,,2013-09-05 18:52:00,
2013-09-05 12:01:00,78.0,49.0,-100.00,North,6,5.0,15.0,36,0.00,,,0.00,,2013-09-05 19:01:00,
2013-09-05 12:11:00,78.0,49.0,-100.00,North,6,5.0,15.0,36,0.00,,,0.00,,2013-09-05 19:11:00,
2013-09-05 12:42:00,80.0,47.0,-100.00,South,188,6.0,14.0,31,0.00,,,0.00,,2013-09-05 19:42:00,
2013-09-05 12:52:00,80.0,47.0,-100.00,South,188,6.0,14.0,31,0.00,,,0.00,,2013-09-05 19:52:00,
2013-09-05 13:03:00,80.0,47.0,-100.00,South,188,6.0,14.0,31,0.00,,,0.00,,2013-09-05 20:03:00,
2013-09-05 13:11:00,80.0,47.0,-100.00,South,188,6.0,14.0,31,0.00,,,0.00,,2013-09-05 20:11:00,
2013-09-05 13:43:00,79.0,47.0,-100.00,South,186,6.0,17.0,32,0.00,,,0.00,,2013-09-05 20:43:00,
2013-09-05 13:52:00,79.0,47.0,-100.00,South,186,6.0,17.0,32,0.00,,,0.00,,2013-09-05 20:52:00,
2013-09-05 14:02:00,79.0,47.0,-100.00,South,186,6.0,17.0,32,0.00,,,0.00,,2013-09-05 21:02:00,
2013-09-05 14:11:00,79.0,47.0,-100.00,South,186,6.0,17.0,32,0.00,,,0.00,,2013-09-05 21:11:00,
2013-09-05 14:44:00,81.0,44.0,-100.00,SW,217,6.0,16.0,27,0.00,,,0.00,,2013-09-05 21:44:00,
2013-09-05 14:54:00,81.0,44.0,-100.00,SW,217,6.0,16.0,27,0.00,,,0.00,,2013-09-05 21:54:00,
2013-09-05 15:04:00,81.0,44.0,-100.00,SW,217,6.0,16.0,27,0.00,,,0.00,,2013-09-05 22:04:00,
2013-09-05 15:13:00,81.0,44.0,-100.00,SW,217,6.0,16.0,27,0.00,,,0.00,,2013-09-05 22:13:00,
2013-09-05 15:43:00,81.0,44.0,-100.00,ESE,123,5.0,12.0,27,0.00,,,0.00,,2013-09-05 22:43:00,
2013-09-05 15:53:00,81.0,44.0,-100.00,ESE,123,5.0,12.0,27,0.00,,,0.00,,2013-09-05 22:53:00,
2013-09-05 16:02:00,81.0,44.0,-100.00,ESE,123,5.0,12.0,27,0.00,,,0.00,,2013-09-05 23:02:00,
2013-09-05 16:12:00,81.0,44.0,-100.00,ESE,123,5.0,12.0,27,0.00,,,0.00,,2013-09-05 23:12:00,
2013-09-05 16:42:00,80.0,45.0,-100.00,SSW,201,4.0,12.0,29,0.00,,,0.00,,2013-09-05 23:42:00,
2013-09-05 16:53:00,80.0,45.0,-100.00,SSW,201,4.0,12.0,29,0.00,,,0.00,,2013-09-05 23:53:00,
2013-09-05 17:02:00,80.0,45.0,-100.00,SSW,201,4.0,12.0,29,0.00,,,0.00,,2013-09-06 00:02:00,
2013-09-05 17:12:00,80.0,45.0,-100.00,SSW,201,4.0,12.0,29,0.00,,,0.00,,2013-09-06 00:12:00,
2013-09-05 17:42:00,79.0,46.0,-100.00,SSE,153,4.0,13.0,31,0.00,,,0.00,,2013-09-06 00:42:00,
2013-09-05 17:52:00,79.0,46.0,-100.00,SSE,153,4.0,13.0,31,0.00,,,0.00,,2013-09-06 00:52:00,
2013-09-05 18:01:00,79.0,46.0,-100.00,SSE,153,4.0,13.0,31,0.00,,,0.00,,2013-09-06 01:01:00,
2013-09-05 18:11:00,79.0,46.0,-100.00,SSE,153,4.0,13.0,31,0.00,,,0.00,,2013-09-06 01:11:00,
2013-09-05 18:42:00,76.0,46.0,-100.00,SSE,155,7.0,15.0,35,0.00,,,0.00,,2013-09-06 01:42:00,
2013-09-05 18:52:00,76.0,46.0,-100.00,SSE,155,7.0,15.0,35,0.00,,,0.00,,2013-09-06 01:52:00,
2013-09-05 19:02:00,76.0,46.0,-100.00,SSE,155,7.0,15.0,35,0.00,,,0.00,,2013-09-06 02:02:00,
2013-09-05 19:11:00,76.0,46.0,-100.00,SSE,155,7.0,15.0,35,0.00,,,0.00,,2013-09-06 02:11:00,
2013-09-05 19:42:00,67.0,46.0,-100.00,ESE,103,3.0,7.0,47,0.00,,,0.00,,2013-09-06 02:42:00,
2013-09-05 19:52:00,67.0,46.0,-100.00,ESE,103,3.0,7.0,47,0.00,,,0.00,,2013-09-06 02:52:00,
2013-09-05 20:02:00,67.0,46.0,-100.00,ESE,103,3.0,7.0,47,0.00,,,0.00,,2013-09-06 03:02:00,
2013-09-05 20:11:00,67.0,46.0,-100.00,ESE,103,3.0,7.0,47,0.00,,,0.00,,2013-09-06 03:11:00,
2013-09-05 20:44:00,62.0,51.0,-100.00,ESE,114,2.0,4.0,67,0.00,,,0.00,,2013-09-06 03:44:00,
2013-09-05 20:55:00,62.0,51.0,-100.00,ESE,114,2.0,4.0,67,0.00,,,0.00,,2013-09-06 03:55:00,
2013-09-05 21:04:00,62.0,51.0,-100.00,ESE,114,2.0,4.0,67,0.00,,,0.00,,2013-09-06 04:04:00,
2013-09-05 21:13:00,62.0,51.0,-100.00,ESE,114,2.0,4.0,67,0.00,,,0.00,,2013-09-06 04:13:00,
2013-09-05 21:44:00,59.0,48.0,-100.00,East,101,2.0,3.0,68,0.00,,,0.00,,2013-09-06 04:44:00,
2013-09-05 21:54:00,59.0,48.0,-100.00,East,101,2.0,3.0,68,0.00,,,0.00,,2013-09-06 04:54:00,
2013-09-05 22:03:00,59.0,48.0,-100.00,East,101,2.0,3.0,68,0.00,,,0.00,,2013-09-06 05:03:00,
2013-09-05 22:12:00,59.0,48.0,-100.00,East,101,2.0,3.0,68,0.00,,,0.00,,2013-09-06 05:12:00,
2013-09-05 22:43:00,58.0,50.0,-100.00,ESE,107,0.0,2.0,74,0.00,,,0.00,,2013-09-06 05:43:00,
2013-09-05 22:52:00,58.0,50.0,-100.00,ESE,107,0.0,2.0,74,0.00,,,0.00,,2013-09-06 05:52:00,
2013-09-05 23:02:00,58.0,50.0,-100.00,ESE,107,0.0,2.0,74,0.00,,,0.00,,2013-09-06 06:02:00,
2013-09-05 23:11:00,58.0,50.0,-100.00,ESE,107,0.0,2.0,74,0.00,,,0.00,,2013-09-06 06:11:00,
2013-09-05 23:42:00,55.0,48.0,-100.00,SE,140,1.0,3.0,76,0.00,,,0.00,,2013-09-06 06:42:00,
2013-09-05 23:53:00,55.0,48.0,-100.00,SE,140,1.0,3.0,76,0.00,,,0.00,,2013-09-06 06:53:00,